Alameda, California
Current Conditions -  °F | °C
As of 1:53 AM on Thursday 27 Nov 2014 (Local Time) from KOAK Reporting Station
Broken Clouds Broken Clouds  
Wind Chill: 49°   Ceiling: 20000
Heat Index: 49°   Visibility: 7mi
Dew Point: 45°   Wind: 3mph
Humidity: 86%   Direction: 50°NE
Pressure: 30.19"   Gusts: NA
Location:  37.77°N, 122.24°W
Report Text: KOAK 270953Z 05003KT 7SM BKN200 09/07 A3019 RMK AO2 SLP223 T00940072
Loading
Personal Weather Stations






























Interactive Weather Map New forecast layout! Learn more

10-Day Weather Forecast

Advertisements
Track Severe Weather on mobile